sensor_id;sensor_type;location;lat;lon;timestamp;P1;durP1;ratioP1;P2;durP2;ratioP2
18576;SDS011;9418;52.694;13.294;2023-06-24T00:01:51;12.53;;;9.40;;
18576;SDS011;9418;52.694;13.294;2023-06-24T00:04:17;13.33;;;8.77;;
18576;SDS011;9418;52.694;13.294;2023-06-24T00:06:45;13.13;;;9.63;;
18576;SDS011;9418;52.694;13.294;2023-06-24T00:09:12;12.60;;;9.93;;
18576;SDS011;9418;52.694;13.294;2023-06-24T00:11:39;14.20;;;8.57;;
18576;SDS011;9418;52.694;13.294;2023-06-24T00:14:05;9.80;;;8.47;;
18576;SDS011;9418;52.694;13.294;2023-06-24T00:16:34;9.20;;;8.40;;
18576;SDS011;9418;52.694;13.294;2023-06-24T00:19:01;46.50;;;10.40;;
18576;SDS011;9418;52.694;13.294;2023-06-24T00:21:28;21.07;;;9.57;;
18576;SDS011;9418;52.694;13.294;2023-06-24T00:23:55;10.43;;;8.80;;
18576;SDS011;9418;52.694;13.294;2023-06-24T00:26:23;16.93;;;8.80;;
18576;SDS011;9418;52.694;13.294;2023-06-24T00:28:49;9.40;;;8.43;;
18576;SDS011;9418;52.694;13.294;2023-06-24T00:31:16;10.10;;;9.30;;
18576;SDS011;9418;52.694;13.294;2023-06-24T00:33:44;9.37;;;8.37;;
18576;SDS011;9418;52.694;13.294;2023-06-24T00:36:10;14.57;;;9.07;;
18576;SDS011;9418;52.694;13.294;2023-06-24T00:38:37;22.90;;;9.77;;
18576;SDS011;9418;52.694;13.294;2023-06-24T00:41:04;10.73;;;9.63;;
18576;SDS011;9418;52.694;13.294;2023-06-24T00:43:31;11.10;;;9.97;;
18576;SDS011;9418;52.694;13.294;2023-06-24T00:45:58;11.00;;;9.90;;
18576;SDS011;9418;52.694;13.294;2023-06-24T00:48:25;13.23;;;10.40;;
18576;SDS011;9418;52.694;13.294;2023-06-24T00:50:53;15.23;;;10.27;;
18576;SDS011;9418;52.694;13.294;2023-06-24T00:53:21;10.17;;;9.13;;
18576;SDS011;9418;52.694;13.294;2023-06-24T00:55:49;11.97;;;9.40;;
18576;SDS011;9418;52.694;13.294;2023-06-24T00:58:17;14.67;;;10.03;;
18576;SDS011;9418;52.694;13.294;2023-06-24T01:00:46;12.93;;;9.67;;
18576;SDS011;9418;52.694;13.294;2023-06-24T01:03:21;10.97;;;9.77;;
18576;SDS011;9418;52.694;13.294;2023-06-24T01:05:48;10.80;;;9.70;;
18576;SDS011;9418;52.694;13.294;2023-06-24T01:08:16;15.27;;;10.50;;
18576;SDS011;9418;52.694;13.294;2023-06-24T01:10:44;11.00;;;10.00;;
18576;SDS011;9418;52.694;13.294;2023-06-24T01:13:11;17.33;;;10.87;;
18576;SDS011;9418;52.694;13.294;2023-06-24T01:15:37;11.57;;;10.47;;
18576;SDS011;9418;52.694;13.294;2023-06-24T01:18:07;22.50;;;11.40;;
18576;SDS011;9418;52.694;13.294;2023-06-24T01:20:39;16.67;;;12.23;;
18576;SDS011;9418;52.694;13.294;2023-06-24T01:23:18;10.80;;;9.70;;
18576;SDS011;9418;52.694;13.294;2023-06-24T01:26:11;11.60;;;10.20;;
18576;SDS011;9418;52.694;13.294;2023-06-24T01:28:52;11.80;;;10.10;;
18576;SDS011;9418;52.694;13.294;2023-06-24T01:31:35;11.83;;;10.60;;
18576;SDS011;9418;52.694;13.294;2023-06-24T01:34:06;21.80;;;10.73;;
18576;SDS011;9418;52.694;13.294;2023-06-24T01:36:42;16.30;;;10.60;;
18576;SDS011;9418;52.694;13.294;2023-06-24T01:39:13;18.23;;;12.00;;
18576;SDS011;9418;52.694;13.294;2023-06-24T01:41:43;12.50;;;10.57;;
18576;SDS011;9418;52.694;13.294;2023-06-24T01:44:13;12.03;;;10.70;;
18576;SDS011;9418;52.694;13.294;2023-06-24T01:46:42;12.63;;;10.70;;
18576;SDS011;9418;52.694;13.294;2023-06-24T01:49:13;10.00;;;8.97;;
18576;SDS011;9418;52.694;13.294;2023-06-24T01:51:41;11.67;;;10.57;;
18576;SDS011;9418;52.694;13.294;2023-06-24T01:54:11;12.40;;;11.07;;
18576;SDS011;9418;52.694;13.294;2023-06-24T01:56:41;16.00;;;10.00;;
18576;SDS011;9418;52.694;13.294;2023-06-24T01:59:09;13.13;;;9.93;;
18576;SDS011;9418;52.694;13.294;2023-06-24T02:01:37;12.00;;;10.50;;
18576;SDS011;9418;52.694;13.294;2023-06-24T02:04:07;11.70;;;10.50;;
18576;SDS011;9418;52.694;13.294;2023-06-24T02:06:35;12.33;;;11.10;;
18576;SDS011;9418;52.694;13.294;2023-06-24T02:09:03;13.40;;;11.17;;
18576;SDS011;9418;52.694;13.294;2023-06-24T02:11:31;11.20;;;10.20;;
18576;SDS011;9418;52.694;13.294;2023-06-24T02:13:59;13.67;;;10.77;;
18576;SDS011;9418;52.694;13.294;2023-06-24T02:16:28;12.50;;;10.93;;
18576;SDS011;9418;52.694;13.294;2023-06-24T02:18:56;15.73;;;11.50;;
18576;SDS011;9418;52.694;13.294;2023-06-24T02:21:24;16.30;;;10.20;;
18576;SDS011;9418;52.694;13.294;2023-06-24T02:23:53;13.07;;;10.10;;
18576;SDS011;9418;52.694;13.294;2023-06-24T02:26:20;14.10;;;11.20;;
18576;SDS011;9418;52.694;13.294;2023-06-24T02:28:47;16.13;;;10.97;;
18576;SDS011;9418;52.694;13.294;2023-06-24T02:31:15;16.03;;;11.23;;
18576;SDS011;9418;52.694;13.294;2023-06-24T02:33:43;11.67;;;10.57;;
18576;SDS011;9418;52.694;13.294;2023-06-24T02:36:09;15.70;;;10.20;;
18576;SDS011;9418;52.694;13.294;2023-06-24T02:38:37;11.60;;;10.40;;
18576;SDS011;9418;52.694;13.294;2023-06-24T02:41:04;13.17;;;10.07;;
18576;SDS011;9418;52.694;13.294;2023-06-24T02:43:31;14.20;;;10.00;;
18576;SDS011;9418;52.694;13.294;2023-06-24T02:46:00;15.67;;;10.63;;
18576;SDS011;9418;52.694;13.294;2023-06-24T02:48:28;12.53;;;10.80;;
18576;SDS011;9418;52.694;13.294;2023-06-24T02:50:57;13.83;;;10.10;;
18576;SDS011;9418;52.694;13.294;2023-06-24T02:53:24;12.03;;;10.70;;
18576;SDS011;9418;52.694;13.294;2023-06-24T02:55:54;14.37;;;10.73;;
18576;SDS011;9418;52.694;13.294;2023-06-24T02:58:21;14.37;;;11.10;;
18576;SDS011;9418;52.694;13.294;2023-06-24T03:00:49;10.33;;;9.33;;
18576;SDS011;9418;52.694;13.294;2023-06-24T03:03:15;12.70;;;11.27;;
18576;SDS011;9418;52.694;13.294;2023-06-24T03:05:43;12.53;;;11.23;;
18576;SDS011;9418;52.694;13.294;2023-06-24T03:08:13;19.40;;;10.40;;
18576;SDS011;9418;52.694;13.294;2023-06-24T03:10:40;11.10;;;10.10;;
18576;SDS011;9418;52.694;13.294;2023-06-24T03:13:08;12.20;;;10.60;;
18576;SDS011;9418;52.694;13.294;2023-06-24T03:15:34;14.87;;;9.67;;
18576;SDS011;9418;52.694;13.294;2023-06-24T03:18:01;20.13;;;11.17;;
18576;SDS011;9418;52.694;13.294;2023-06-24T03:20:28;14.20;;;10.77;;
18576;SDS011;9418;52.694;13.294;2023-06-24T03:23:04;10.50;;;9.13;;
18576;SDS011;9418;52.694;13.294;2023-06-24T03:25:31;20.00;;;10.20;;
18576;SDS011;9418;52.694;13.294;2023-06-24T03:27:57;12.43;;;10.60;;
18576;SDS011;9418;52.694;13.294;2023-06-24T03:30:27;14.83;;;10.60;;
18576;SDS011;9418;52.694;13.294;2023-06-24T03:32:53;10.80;;;9.70;;
18576;SDS011;9418;52.694;13.294;2023-06-24T03:35:20;11.33;;;9.40;;
18576;SDS011;9418;52.694;13.294;2023-06-24T03:37:47;15.53;;;10.53;;
18576;SDS011;9418;52.694;13.294;2023-06-24T03:40:14;13.07;;;10.70;;
18576;SDS011;9418;52.694;13.294;2023-06-24T03:42:40;11.60;;;10.40;;
18576;SDS011;9418;52.694;13.294;2023-06-24T03:45:07;12.67;;;9.63;;
18576;SDS011;9418;52.694;13.294;2023-06-24T03:47:35;13.70;;;10.20;;
18576;SDS011;9418;52.694;13.294;2023-06-24T03:50:03;10.60;;;9.60;;
18576;SDS011;9418;52.694;13.294;2023-06-24T03:52:30;13.77;;;10.27;;
18576;SDS011;9418;52.694;13.294;2023-06-24T03:54:57;11.20;;;9.87;;
18576;SDS011;9418;52.694;13.294;2023-06-24T03:57:23;16.90;;;10.47;;
18576;SDS011;9418;52.694;13.294;2023-06-24T03:59:50;11.10;;;9.37;;
18576;SDS011;9418;52.694;13.294;2023-06-24T04:02:16;17.67;;;9.77;;
18576;SDS011;9418;52.694;13.294;2023-06-24T04:04:44;10.70;;;9.70;;
18576;SDS011;9418;52.694;13.294;2023-06-24T04:07:15;15.67;;;9.93;;
18576;SDS011;9418;52.694;13.294;2023-06-24T04:09:53;15.23;;;9.90;;
18576;SDS011;9418;52.694;13.294;2023-06-24T04:12:20;11.87;;;10.00;;
18576;SDS011;9418;52.694;13.294;2023-06-24T04:14:47;10.40;;;8.70;;
18576;SDS011;9418;52.694;13.294;2023-06-24T04:17:13;13.63;;;9.73;;
18576;SDS011;9418;52.694;13.294;2023-06-24T04:19:40;11.33;;;9.57;;
18576;SDS011;9418;52.694;13.294;2023-06-24T04:22:08;19.60;;;9.20;;
18576;SDS011;9418;52.694;13.294;2023-06-24T04:24:34;19.87;;;9.40;;
18576;SDS011;9418;52.694;13.294;2023-06-24T04:27:01;16.53;;;10.77;;
18576;SDS011;9418;52.694;13.294;2023-06-24T04:29:28;13.27;;;9.83;;
18576;SDS011;9418;52.694;13.294;2023-06-24T04:31:54;17.80;;;9.60;;
18576;SDS011;9418;52.694;13.294;2023-06-24T04:34:21;16.10;;;9.97;;
18576;SDS011;9418;52.694;13.294;2023-06-24T04:36:47;12.30;;;10.20;;
18576;SDS011;9418;52.694;13.294;2023-06-24T04:39:15;10.73;;;9.60;;
18576;SDS011;9418;52.694;13.294;2023-06-24T04:41:42;16.43;;;9.87;;
18576;SDS011;9418;52.694;13.294;2023-06-24T04:44:08;13.83;;;9.87;;
18576;SDS011;9418;52.694;13.294;2023-06-24T04:46:35;16.13;;;10.23;;
18576;SDS011;9418;52.694;13.294;2023-06-24T04:49:02;10.77;;;9.77;;
18576;SDS011;9418;52.694;13.294;2023-06-24T04:51:28;14.53;;;8.90;;
18576;SDS011;9418;52.694;13.294;2023-06-24T04:53:55;20.87;;;9.53;;
18576;SDS011;9418;52.694;13.294;2023-06-24T04:56:23;17.43;;;10.40;;
18576;SDS011;9418;52.694;13.294;2023-06-24T04:58:49;11.37;;;10.27;;
18576;SDS011;9418;52.694;13.294;2023-06-24T05:01:16;10.63;;;9.63;;
18576;SDS011;9418;52.694;13.294;2023-06-24T05:03:43;11.17;;;9.20;;
18576;SDS011;9418;52.694;13.294;2023-06-24T05:06:10;15.13;;;9.87;;
18576;SDS011;9418;52.694;13.294;2023-06-24T05:08:36;12.80;;;9.73;;
18576;SDS011;9418;52.694;13.294;2023-06-24T05:11:03;16.00;;;9.70;;
18576;SDS011;9418;52.694;13.294;2023-06-24T05:13:31;17.83;;;9.27;;
18576;SDS011;9418;52.694;13.294;2023-06-24T05:15:58;11.20;;;10.00;;
18576;SDS011;9418;52.694;13.294;2023-06-24T05:18:24;11.63;;;10.53;;
18576;SDS011;9418;52.694;13.294;2023-06-24T05:20:51;12.13;;;9.63;;
18576;SDS011;9418;52.694;13.294;2023-06-24T05:23:17;14.13;;;10.00;;
18576;SDS011;9418;52.694;13.294;2023-06-24T05:25:44;12.10;;;9.63;;
18576;SDS011;9418;52.694;13.294;2023-06-24T05:28:11;11.43;;;9.80;;
18576;SDS011;9418;52.694;13.294;2023-06-24T05:30:38;15.53;;;9.87;;
18576;SDS011;9418;52.694;13.294;2023-06-24T05:33:06;12.97;;;9.30;;
18576;SDS011;9418;52.694;13.294;2023-06-24T05:35:33;11.07;;;9.10;;
18576;SDS011;9418;52.694;13.294;2023-06-24T05:37:59;13.40;;;9.67;;
18576;SDS011;9418;52.694;13.294;2023-06-24T05:40:26;9.93;;;8.90;;
18576;SDS011;9418;52.694;13.294;2023-06-24T05:42:52;15.33;;;9.50;;
18576;SDS011;9418;52.694;13.294;2023-06-24T05:45:19;9.90;;;9.00;;
18576;SDS011;9418;52.694;13.294;2023-06-24T05:47:47;13.60;;;8.97;;
18576;SDS011;9418;52.694;13.294;2023-06-24T05:50:13;14.23;;;9.37;;
18576;SDS011;9418;52.694;13.294;2023-06-24T05:52:40;14.93;;;9.93;;
18576;SDS011;9418;52.694;13.294;2023-06-24T05:55:06;12.93;;;10.07;;
18576;SDS011;9418;52.694;13.294;2023-06-24T05:57:34;21.03;;;9.37;;
18576;SDS011;9418;52.694;13.294;2023-06-24T06:00:01;12.27;;;9.97;;
18576;SDS011;9418;52.694;13.294;2023-06-24T06:02:30;16.70;;;9.30;;
18576;SDS011;9418;52.694;13.294;2023-06-24T06:04:58;12.43;;;8.20;;
18576;SDS011;9418;52.694;13.294;2023-06-24T06:07:26;15.93;;;10.00;;
18576;SDS011;9418;52.694;13.294;2023-06-24T06:09:52;12.30;;;9.07;;
18576;SDS011;9418;52.694;13.294;2023-06-24T06:12:19;17.73;;;9.97;;
18576;SDS011;9418;52.694;13.294;2023-06-24T06:14:57;13.13;;;9.60;;
18576;SDS011;9418;52.694;13.294;2023-06-24T06:17:24;14.50;;;9.73;;
18576;SDS011;9418;52.694;13.294;2023-06-24T06:19:51;17.90;;;10.97;;
18576;SDS011;9418;52.694;13.294;2023-06-24T06:22:19;13.30;;;8.97;;
18576;SDS011;9418;52.694;13.294;2023-06-24T06:24:45;17.57;;;10.27;;
18576;SDS011;9418;52.694;13.294;2023-06-24T06:27:12;17.23;;;9.70;;
18576;SDS011;9418;52.694;13.294;2023-06-24T06:29:39;14.47;;;9.70;;
18576;SDS011;9418;52.694;13.294;2023-06-24T06:32:06;14.50;;;9.30;;
18576;SDS011;9418;52.694;13.294;2023-06-24T06:34:33;11.57;;;9.93;;
18576;SDS011;9418;52.694;13.294;2023-06-24T06:37:00;16.73;;;10.57;;
18576;SDS011;9418;52.694;13.294;2023-06-24T06:39:27;17.33;;;9.67;;
18576;SDS011;9418;52.694;13.294;2023-06-24T06:41:54;13.10;;;9.80;;
18576;SDS011;9418;52.694;13.294;2023-06-24T06:44:21;8.70;;;7.80;;
18576;SDS011;9418;52.694;13.294;2023-06-24T06:46:47;10.13;;;8.77;;
18576;SDS011;9418;52.694;13.294;2023-06-24T06:49:14;13.53;;;9.93;;
18576;SDS011;9418;52.694;13.294;2023-06-24T06:51:40;8.63;;;7.83;;
18576;SDS011;9418;52.694;13.294;2023-06-24T06:54:07;9.63;;;8.07;;
18576;SDS011;9418;52.694;13.294;2023-06-24T06:56:34;10.53;;;9.07;;
18576;SDS011;9418;52.694;13.294;2023-06-24T06:59:01;10.53;;;7.90;;
18576;SDS011;9418;52.694;13.294;2023-06-24T07:01:27;18.17;;;9.00;;
18576;SDS011;9418;52.694;13.294;2023-06-24T07:03:54;12.47;;;8.33;;
18576;SDS011;9418;52.694;13.294;2023-06-24T07:06:21;9.87;;;8.47;;
18576;SDS011;9418;52.694;13.294;2023-06-24T07:08:47;9.20;;;8.30;;
18576;SDS011;9418;52.694;13.294;2023-06-24T07:11:14;13.50;;;7.70;;
18576;SDS011;9418;52.694;13.294;2023-06-24T07:13:42;9.90;;;7.43;;
18576;SDS011;9418;52.694;13.294;2023-06-24T07:16:09;16.73;;;8.27;;
18576;SDS011;9418;52.694;13.294;2023-06-24T07:18:36;10.70;;;7.87;;
18576;SDS011;9418;52.694;13.294;2023-06-24T07:21:03;9.87;;;7.63;;
18576;SDS011;9418;52.694;13.294;2023-06-24T07:23:29;9.03;;;8.23;;
18576;SDS011;9418;52.694;13.294;2023-06-24T07:25:56;9.67;;;7.90;;
18576;SDS011;9418;52.694;13.294;2023-06-24T07:28:22;14.27;;;8.50;;
18576;SDS011;9418;52.694;13.294;2023-06-24T07:30:50;11.73;;;8.60;;
18576;SDS011;9418;52.694;13.294;2023-06-24T07:33:16;9.30;;;7.03;;
18576;SDS011;9418;52.694;13.294;2023-06-24T07:35:43;12.93;;;8.20;;
18576;SDS011;9418;52.694;13.294;2023-06-24T07:38:09;10.87;;;7.37;;
18576;SDS011;9418;52.694;13.294;2023-06-24T07:40:36;10.10;;;7.27;;
18576;SDS011;9418;52.694;13.294;2023-06-24T07:43:02;11.93;;;7.20;;
18576;SDS011;9418;52.694;13.294;2023-06-24T07:45:29;9.67;;;6.53;;
18576;SDS011;9418;52.694;13.294;2023-06-24T07:47:57;17.67;;;6.53;;
18576;SDS011;9418;52.694;13.294;2023-06-24T07:50:24;8.50;;;6.10;;
18576;SDS011;9418;52.694;13.294;2023-06-24T07:52:50;7.90;;;6.70;;
18576;SDS011;9418;52.694;13.294;2023-06-24T07:55:17;9.40;;;7.20;;
18576;SDS011;9418;52.694;13.294;2023-06-24T07:57:44;12.40;;;6.97;;
18576;SDS011;9418;52.694;13.294;2023-06-24T08:00:12;8.13;;;6.97;;
18576;SDS011;9418;52.694;13.294;2023-06-24T08:02:40;12.57;;;6.60;;
18576;SDS011;9418;52.694;13.294;2023-06-24T08:05:09;9.67;;;6.57;;
18576;SDS011;9418;52.694;13.294;2023-06-24T08:07:35;7.43;;;6.10;;
18576;SDS011;9418;52.694;13.294;2023-06-24T08:10:03;7.97;;;6.60;;
18576;SDS011;9418;52.694;13.294;2023-06-24T08:12:30;9.80;;;7.10;;
18576;SDS011;9418;52.694;13.294;2023-06-24T08:14:57;8.57;;;6.67;;
18576;SDS011;9418;52.694;13.294;2023-06-24T08:17:23;7.77;;;7.00;;
18576;SDS011;9418;52.694;13.294;2023-06-24T08:19:50;12.53;;;6.30;;
18576;SDS011;9418;52.694;13.294;2023-06-24T08:22:18;6.60;;;6.00;;
18576;SDS011;9418;52.694;13.294;2023-06-24T08:24:44;7.90;;;5.80;;
18576;SDS011;9418;52.694;13.294;2023-06-24T08:27:11;6.03;;;5.53;;
18576;SDS011;9418;52.694;13.294;2023-06-24T08:29:38;9.27;;;6.00;;
18576;SDS011;9418;52.694;13.294;2023-06-24T08:32:04;8.20;;;6.10;;
18576;SDS011;9418;52.694;13.294;2023-06-24T08:34:32;8.87;;;5.40;;
18576;SDS011;9418;52.694;13.294;2023-06-24T08:36:58;6.47;;;5.90;;
18576;SDS011;9418;52.694;13.294;2023-06-24T08:39:26;6.97;;;6.30;;
18576;SDS011;9418;52.694;13.294;2023-06-24T08:41:53;7.80;;;6.07;;
18576;SDS011;9418;52.694;13.294;2023-06-24T08:44:19;7.37;;;5.40;;
18576;SDS011;9418;52.694;13.294;2023-06-24T08:46:46;5.83;;;5.33;;
18576;SDS011;9418;52.694;13.294;2023-06-24T08:49:14;10.77;;;7.53;;
18576;SDS011;9418;52.694;13.294;2023-06-24T08:51:53;8.20;;;5.20;;
18576;SDS011;9418;52.694;13.294;2023-06-24T08:54:26;10.00;;;5.90;;
18576;SDS011;9418;52.694;13.294;2023-06-24T08:56:54;14.63;;;5.90;;
18576;SDS011;9418;52.694;13.294;2023-06-24T08:59:21;8.27;;;5.33;;
18576;SDS011;9418;52.694;13.294;2023-06-24T09:01:47;5.10;;;4.60;;
18576;SDS011;9418;52.694;13.294;2023-06-24T09:04:15;6.60;;;5.33;;
18576;SDS011;9418;52.694;13.294;2023-06-24T09:06:42;5.90;;;5.10;;
18576;SDS011;9418;52.694;13.294;2023-06-24T09:09:16;4.80;;;4.40;;
18576;SDS011;9418;52.694;13.294;2023-06-24T09:11:46;5.23;;;4.70;;
18576;SDS011;9418;52.694;13.294;2023-06-24T09:14:17;8.63;;;5.37;;
18576;SDS011;9418;52.694;13.294;2023-06-24T09:16:50;6.63;;;5.20;;
18576;SDS011;9418;52.694;13.294;2023-06-24T09:19:19;5.23;;;4.63;;
18576;SDS011;9418;52.694;13.294;2023-06-24T09:21:46;5.73;;;5.20;;
18576;SDS011;9418;52.694;13.294;2023-06-24T09:24:13;5.93;;;5.20;;
18576;SDS011;9418;52.694;13.294;2023-06-24T09:26:41;8.83;;;4.60;;
18576;SDS011;9418;52.694;13.294;2023-06-24T09:29:11;4.20;;;3.90;;
18576;SDS011;9418;52.694;13.294;2023-06-24T09:31:45;9.13;;;4.73;;
18576;SDS011;9418;52.694;13.294;2023-06-24T09:34:13;8.13;;;4.27;;
18576;SDS011;9418;52.694;13.294;2023-06-24T09:36:41;13.50;;;4.57;;
18576;SDS011;9418;52.694;13.294;2023-06-24T09:39:09;11.37;;;4.40;;
18576;SDS011;9418;52.694;13.294;2023-06-24T09:41:35;12.90;;;4.53;;
18576;SDS011;9418;52.694;13.294;2023-06-24T09:44:02;8.83;;;4.90;;
18576;SDS011;9418;52.694;13.294;2023-06-24T09:46:35;8.40;;;4.07;;
18576;SDS011;9418;52.694;13.294;2023-06-24T09:49:02;6.53;;;4.00;;
18576;SDS011;9418;52.694;13.294;2023-06-24T09:51:29;4.40;;;3.90;;
18576;SDS011;9418;52.694;13.294;2023-06-24T09:53:57;8.63;;;4.20;;
18576;SDS011;9418;52.694;13.294;2023-06-24T09:56:24;6.00;;;4.10;;
18576;SDS011;9418;52.694;13.294;2023-06-24T09:58:51;3.93;;;3.63;;
18576;SDS011;9418;52.694;13.294;2023-06-24T10:01:17;6.30;;;4.03;;
18576;SDS011;9418;52.694;13.294;2023-06-24T10:03:45;4.53;;;4.03;;
18576;SDS011;9418;52.694;13.294;2023-06-24T10:06:12;5.07;;;4.33;;
18576;SDS011;9418;52.694;13.294;2023-06-24T10:08:39;4.33;;;3.90;;
18576;SDS011;9418;52.694;13.294;2023-06-24T10:11:05;12.10;;;4.50;;
18576;SDS011;9418;52.694;13.294;2023-06-24T10:13:32;4.63;;;4.23;;
18576;SDS011;9418;52.694;13.294;2023-06-24T10:15:58;7.87;;;4.67;;
18576;SDS011;9418;52.694;13.294;2023-06-24T10:18:31;5.00;;;4.17;;
18576;SDS011;9418;52.694;13.294;2023-06-24T10:21:00;5.33;;;3.90;;
18576;SDS011;9418;52.694;13.294;2023-06-24T10:23:29;8.10;;;4.23;;
18576;SDS011;9418;52.694;13.294;2023-06-24T10:25:57;5.30;;;3.80;;
18576;SDS011;9418;52.694;13.294;2023-06-24T10:28:23;8.87;;;4.30;;
18576;SDS011;9418;52.694;13.294;2023-06-24T10:30:53;6.77;;;4.30;;
18576;SDS011;9418;52.694;13.294;2023-06-24T10:33:21;5.60;;;4.37;;
18576;SDS011;9418;52.694;13.294;2023-06-24T10:35:49;5.70;;;4.50;;
18576;SDS011;9418;52.694;13.294;2023-06-24T10:38:19;4.90;;;4.50;;
18576;SDS011;9418;52.694;13.294;2023-06-24T10:40:45;7.57;;;4.30;;
18576;SDS011;9418;52.694;13.294;2023-06-24T10:43:25;4.70;;;3.80;;
18576;SDS011;9418;52.694;13.294;2023-06-24T10:45:54;5.20;;;4.63;;
18576;SDS011;9418;52.694;13.294;2023-06-24T10:48:21;6.73;;;4.20;;
18576;SDS011;9418;52.694;13.294;2023-06-24T10:50:48;7.90;;;4.33;;
18576;SDS011;9418;52.694;13.294;2023-06-24T10:53:15;11.23;;;4.33;;
18576;SDS011;9418;52.694;13.294;2023-06-24T10:55:44;4.40;;;4.00;;
18576;SDS011;9418;52.694;13.294;2023-06-24T10:58:12;4.10;;;3.70;;
18576;SDS011;9418;52.694;13.294;2023-06-24T11:00:40;5.50;;;4.30;;
18576;SDS011;9418;52.694;13.294;2023-06-24T11:03:08;4.57;;;4.20;;
18576;SDS011;9418;52.694;13.294;2023-06-24T11:05:36;7.50;;;4.23;;
18576;SDS011;9418;52.694;13.294;2023-06-24T11:08:04;4.40;;;4.00;;
18576;SDS011;9418;52.694;13.294;2023-06-24T11:10:31;9.60;;;4.40;;
18576;SDS011;9418;52.694;13.294;2023-06-24T11:12:59;20.93;;;4.33;;
18576;SDS011;9418;52.694;13.294;2023-06-24T11:15:31;6.53;;;3.43;;
18576;SDS011;9418;52.694;13.294;2023-06-24T11:17:58;4.40;;;4.00;;
18576;SDS011;9418;52.694;13.294;2023-06-24T11:20:27;5.47;;;3.80;;
18576;SDS011;9418;52.694;13.294;2023-06-24T11:22:54;7.10;;;4.47;;
18576;SDS011;9418;52.694;13.294;2023-06-24T11:25:21;4.27;;;3.97;;
18576;SDS011;9418;52.694;13.294;2023-06-24T11:27:49;7.00;;;4.00;;
18576;SDS011;9418;52.694;13.294;2023-06-24T11:30:18;23.37;;;4.37;;
18576;SDS011;9418;52.694;13.294;2023-06-24T11:32:44;7.70;;;4.10;;
18576;SDS011;9418;52.694;13.294;2023-06-24T11:35:12;10.67;;;4.27;;
18576;SDS011;9418;52.694;13.294;2023-06-24T11:37:41;10.23;;;3.73;;
18576;SDS011;9418;52.694;13.294;2023-06-24T11:40:09;10.27;;;4.70;;
18576;SDS011;9418;52.694;13.294;2023-06-24T11:42:37;4.30;;;3.90;;
18576;SDS011;9418;52.694;13.294;2023-06-24T11:45:06;4.07;;;3.23;;
18576;SDS011;9418;52.694;13.294;2023-06-24T11:47:36;8.33;;;4.40;;
18576;SDS011;9418;52.694;13.294;2023-06-24T11:50:04;5.57;;;4.10;;
18576;SDS011;9418;52.694;13.294;2023-06-24T11:52:33;4.93;;;4.43;;
18576;SDS011;9418;52.694;13.294;2023-06-24T11:55:10;3.73;;;3.10;;
18576;SDS011;9418;52.694;13.294;2023-06-24T11:57:47;7.40;;;4.00;;
18576;SDS011;9418;52.694;13.294;2023-06-24T12:00:19;7.43;;;4.23;;
18576;SDS011;9418;52.694;13.294;2023-06-24T12:02:49;10.03;;;3.87;;
18576;SDS011;9418;52.694;13.294;2023-06-24T12:05:21;6.20;;;3.97;;
18576;SDS011;9418;52.694;13.294;2023-06-24T12:07:51;7.20;;;4.37;;
18576;SDS011;9418;52.694;13.294;2023-06-24T12:10:20;7.03;;;4.93;;
18576;SDS011;9418;52.694;13.294;2023-06-24T12:12:46;4.83;;;4.17;;
18576;SDS011;9418;52.694;13.294;2023-06-24T12:15:13;6.13;;;4.47;;
18576;SDS011;9418;52.694;13.294;2023-06-24T12:17:39;5.30;;;4.27;;
18576;SDS011;9418;52.694;13.294;2023-06-24T12:20:08;9.40;;;4.70;;
18576;SDS011;9418;52.694;13.294;2023-06-24T12:22:35;6.73;;;5.37;;
18576;SDS011;9418;52.694;13.294;2023-06-24T12:25:03;6.93;;;4.83;;
18576;SDS011;9418;52.694;13.294;2023-06-24T12:27:29;11.93;;;4.43;;
18576;SDS011;9418;52.694;13.294;2023-06-24T12:29:56;6.00;;;3.80;;
18576;SDS011;9418;52.694;13.294;2023-06-24T12:32:22;4.40;;;4.10;;
18576;SDS011;9418;52.694;13.294;2023-06-24T12:34:49;13.47;;;4.90;;
18576;SDS011;9418;52.694;13.294;2023-06-24T12:37:17;4.63;;;4.20;;
18576;SDS011;9418;52.694;13.294;2023-06-24T12:39:44;17.03;;;3.90;;
18576;SDS011;9418;52.694;13.294;2023-06-24T12:42:11;5.50;;;4.70;;
18576;SDS011;9418;52.694;13.294;2023-06-24T12:44:38;8.03;;;4.67;;
18576;SDS011;9418;52.694;13.294;2023-06-24T12:47:04;5.50;;;4.40;;
18576;SDS011;9418;52.694;13.294;2023-06-24T12:49:31;6.93;;;4.23;;
18576;SDS011;9418;52.694;13.294;2023-06-24T12:51:58;4.60;;;4.20;;
18576;SDS011;9418;52.694;13.294;2023-06-24T12:54:25;3.50;;;3.27;;
18576;SDS011;9418;52.694;13.294;2023-06-24T12:56:52;11.17;;;4.67;;
18576;SDS011;9418;52.694;13.294;2023-06-24T12:59:18;6.70;;;4.30;;
18576;SDS011;9418;52.694;13.294;2023-06-24T13:01:45;3.90;;;3.60;;
18576;SDS011;9418;52.694;13.294;2023-06-24T13:04:12;7.77;;;5.67;;
18576;SDS011;9418;52.694;13.294;2023-06-24T13:06:38;10.90;;;4.27;;
18576;SDS011;9418;52.694;13.294;2023-06-24T13:09:05;7.70;;;3.93;;
18576;SDS011;9418;52.694;13.294;2023-06-24T13:11:33;7.70;;;4.60;;
18576;SDS011;9418;52.694;13.294;2023-06-24T13:13:59;7.80;;;4.17;;
18576;SDS011;9418;52.694;13.294;2023-06-24T13:16:26;11.70;;;3.97;;
18576;SDS011;9418;52.694;13.294;2023-06-24T13:18:52;7.30;;;4.60;;
18576;SDS011;9418;52.694;13.294;2023-06-24T13:21:19;11.93;;;6.13;;
18576;SDS011;9418;52.694;13.294;2023-06-24T13:23:45;5.97;;;4.30;;
18576;SDS011;9418;52.694;13.294;2023-06-24T13:26:12;4.17;;;3.80;;
18576;SDS011;9418;52.694;13.294;2023-06-24T13:28:40;10.67;;;6.70;;
18576;SDS011;9418;52.694;13.294;2023-06-24T13:31:07;3.97;;;3.67;;
18576;SDS011;9418;52.694;13.294;2023-06-24T13:33:33;8.60;;;5.10;;
18576;SDS011;9418;52.694;13.294;2023-06-24T13:36:00;4.50;;;3.40;;
18576;SDS011;9418;52.694;13.294;2023-06-24T13:38:27;13.50;;;4.70;;
18576;SDS011;9418;52.694;13.294;2023-06-24T13:40:55;7.70;;;4.27;;
18576;SDS011;9418;52.694;13.294;2023-06-24T13:43:22;8.50;;;4.20;;
18576;SDS011;9418;52.694;13.294;2023-06-24T13:45:50;7.33;;;4.33;;
18576;SDS011;9418;52.694;13.294;2023-06-24T13:48:17;17.67;;;9.13;;
18576;SDS011;9418;52.694;13.294;2023-06-24T13:50:44;7.30;;;4.63;;
18576;SDS011;9418;52.694;13.294;2023-06-24T13:53:11;10.47;;;5.73;;
18576;SDS011;9418;52.694;13.294;2023-06-24T13:55:37;6.90;;;3.87;;
18576;SDS011;9418;52.694;13.294;2023-06-24T13:58:04;4.50;;;4.10;;
18576;SDS011;9418;52.694;13.294;2023-06-24T14:00:30;4.73;;;4.33;;
18576;SDS011;9418;52.694;13.294;2023-06-24T14:02:58;11.50;;;7.37;;
18576;SDS011;9418;52.694;13.294;2023-06-24T14:05:25;10.50;;;4.53;;
18576;SDS011;9418;52.694;13.294;2023-06-24T14:07:51;4.93;;;3.97;;
18576;SDS011;9418;52.694;13.294;2023-06-24T14:10:18;7.20;;;4.63;;
18576;SDS011;9418;52.694;13.294;2023-06-24T14:12:44;4.20;;;3.90;;
18576;SDS011;9418;52.694;13.294;2023-06-24T14:15:11;7.00;;;4.33;;
18576;SDS011;9418;52.694;13.294;2023-06-24T14:17:37;3.90;;;3.60;;
18576;SDS011;9418;52.694;13.294;2023-06-24T14:20:06;5.10;;;4.70;;
18576;SDS011;9418;52.694;13.294;2023-06-24T14:22:33;4.57;;;4.13;;
18576;SDS011;9418;52.694;13.294;2023-06-24T14:25:00;6.50;;;4.33;;
18576;SDS011;9418;52.694;13.294;2023-06-24T14:27:26;5.27;;;4.40;;
18576;SDS011;9418;52.694;13.294;2023-06-24T14:29:53;5.20;;;3.83;;
18576;SDS011;9418;52.694;13.294;2023-06-24T14:32:19;5.40;;;4.40;;
18576;SDS011;9418;52.694;13.294;2023-06-24T14:34:46;6.73;;;4.33;;
18576;SDS011;9418;52.694;13.294;2023-06-24T14:37:14;5.27;;;3.90;;
18576;SDS011;9418;52.694;13.294;2023-06-24T14:39:41;4.40;;;4.00;;
18576;SDS011;9418;52.694;13.294;2023-06-24T14:42:07;5.23;;;3.80;;